createdAt,value
2018-04-19T00:02:08.618Z,102618
2018-04-19T00:04:36.779Z,102614
2018-04-19T00:07:04.963Z,102607
2018-04-19T00:09:33.100Z,102606
2018-04-19T00:12:01.282Z,102607
2018-04-19T00:14:29.486Z,102614
2018-04-19T00:16:57.622Z,102613
2018-04-19T00:19:25.777Z,102613
2018-04-19T00:21:54.710Z,102608
2018-04-19T00:24:22.865Z,102616
2018-04-19T00:26:51.034Z,102614
2018-04-19T00:29:19.172Z,102611
2018-04-19T00:31:47.340Z,102616
2018-04-19T00:34:15.501Z,102619
2018-04-19T00:36:43.625Z,102626
2018-04-19T00:39:11.785Z,102619
2018-04-19T00:41:39.978Z,102609
2018-04-19T00:44:08.178Z,102615
2018-04-19T00:46:36.325Z,102616
2018-04-19T00:49:04.497Z,102618
2018-04-19T00:51:32.641Z,102611
2018-04-19T00:54:01.557Z,102605
2018-04-19T00:56:29.676Z,102614
2018-04-19T00:58:57.821Z,102613
2018-04-19T01:01:25.954Z,102605
2018-04-19T01:03:54.083Z,102610
2018-04-19T01:06:22.343Z,102601
2018-04-19T01:08:50.571Z,102599
2018-04-19T01:11:19.497Z,102590
2018-04-19T01:13:47.682Z,102597
2018-04-19T01:16:15.845Z,102595
2018-04-19T01:18:43.985Z,102587
2018-04-19T01:21:12.886Z,102597
2018-04-19T01:23:41.064Z,102593
2018-04-19T01:26:09.189Z,102588
2018-04-19T01:28:37.400Z,102588
2018-04-19T01:31:05.540Z,102584
2018-04-19T01:33:33.669Z,102575
2018-04-19T01:36:19.672Z,102580
2018-04-19T01:38:47.950Z,102579
2018-04-19T01:41:16.106Z,102579
2018-04-19T01:43:44.317Z,102569
2018-04-19T01:46:12.533Z,102570
2018-04-19T01:48:40.662Z,102571
2018-04-19T01:51:08.850Z,102578
2018-04-19T01:53:37.806Z,102584
2018-04-19T01:56:05.933Z,102576
2018-04-19T01:58:34.893Z,102579
2018-04-19T02:01:03.030Z,102576
2018-04-19T02:03:31.194Z,102578
2018-04-19T02:05:59.383Z,102579
2018-04-19T02:08:27.551Z,102568
2018-04-19T02:10:55.773Z,102573
2018-04-19T02:13:25.297Z,102581
2018-04-19T02:15:53.425Z,102568
2018-04-19T02:18:22.372Z,102572
2018-04-19T02:20:50.575Z,102563
2018-04-19T02:23:18.730Z,102557
2018-04-19T02:25:46.948Z,102558
2018-04-19T02:28:15.768Z,102545
2018-04-19T02:30:43.892Z,102557
2018-04-19T02:33:12.057Z,102554
2018-04-19T02:35:40.202Z,102551
2018-04-19T02:38:08.502Z,102550
2018-04-19T02:40:36.679Z,102546
2018-04-19T02:43:04.950Z,102554
2018-04-19T02:45:33.125Z,102545
2018-04-19T02:48:01.289Z,102555
2018-04-19T02:50:29.507Z,102560
2018-04-19T02:52:57.680Z,102553
2018-04-19T02:55:26.673Z,102553
2018-04-19T02:57:55.609Z,102560
2018-04-19T03:00:23.803Z,102553
2018-04-19T03:02:51.998Z,102554
2018-04-19T03:05:20.126Z,102556
2018-04-19T03:07:48.314Z,102549
2018-04-19T03:10:16.586Z,102561
2018-04-19T03:12:44.749Z,102559
2018-04-19T03:15:12.898Z,102551
2018-04-19T03:17:41.070Z,102549
2018-04-19T03:20:09.249Z,102553
2018-04-19T03:22:37.414Z,102554
2018-04-19T03:25:05.597Z,102555
2018-04-19T03:27:33.734Z,102557
2018-04-19T03:30:02.723Z,102557
2018-04-19T03:32:30.876Z,102550
2018-04-19T03:34:59.069Z,102551
2018-04-19T03:37:27.226Z,102554
2018-04-19T03:39:55.353Z,102550
2018-04-19T03:42:23.537Z,102550
2018-04-19T03:44:51.665Z,102547
2018-04-19T03:47:19.906Z,102556
2018-04-19T03:49:49.016Z,102545
2018-04-19T03:52:17.175Z,102550
2018-04-19T03:54:45.346Z,102551
2018-04-19T03:57:13.622Z,102557
2018-04-19T03:59:41.799Z,102556
2018-04-19T04:02:09.949Z,102550
2018-04-19T04:04:38.068Z,102549
2018-04-19T04:07:06.810Z,102551
2018-04-19T04:09:34.994Z,102553
2018-04-19T04:12:03.133Z,102548
2018-04-19T04:14:31.283Z,102542
2018-04-19T04:17:18.217Z,102543
2018-04-19T04:20:04.245Z,102551
2018-04-19T04:22:50.721Z,102556
2018-04-19T04:25:19.682Z,102552
2018-04-19T04:27:48.588Z,102552
2018-04-19T04:30:16.724Z,102547
2018-04-19T04:32:44.937Z,102553
2018-04-19T04:35:13.127Z,102559
2018-04-19T04:37:41.280Z,102560
2018-04-19T04:40:09.434Z,102557
2018-04-19T04:42:38.371Z,102567
2018-04-19T04:45:06.519Z,102558
2018-04-19T04:47:34.653Z,102566
2018-04-19T04:50:02.887Z,102572
2018-04-19T04:52:31.016Z,102571
2018-04-19T04:54:59.908Z,102583
2018-04-19T04:57:28.954Z,102582
2018-04-19T04:59:57.095Z,102579
2018-04-19T05:02:25.233Z,102583
2018-04-19T05:04:54.174Z,102572
2018-04-19T05:07:22.332Z,102584
2018-04-19T05:09:50.485Z,102585
2018-04-19T05:12:18.646Z,102575
2018-04-19T05:14:47.553Z,102584
2018-04-19T05:17:16.510Z,102589
2018-04-19T05:19:44.803Z,102590
2018-04-19T05:22:12.937Z,102585
2018-04-19T05:24:41.151Z,102586
2018-04-19T05:27:10.071Z,102585
2018-04-19T05:29:38.193Z,102592
2018-04-19T05:32:06.374Z,102593
2018-04-19T05:34:34.962Z,102593
2018-04-19T05:37:03.856Z,102589
2018-04-19T05:39:32.872Z,102596
2018-04-19T05:42:01.027Z,102591
2018-04-19T05:44:29.913Z,102601
2018-04-19T05:46:58.932Z,102599
2018-04-19T05:49:27.379Z,102591
2018-04-19T05:51:56.282Z,102605
2018-04-19T05:54:25.383Z,102599
2018-04-19T05:56:53.479Z,102596
2018-04-19T05:59:21.599Z,102599
2018-04-19T06:01:49.795Z,102599
2018-04-19T06:04:18.739Z,102596
2018-04-19T06:06:46.877Z,102600
2018-04-19T06:09:16.008Z,102592
2018-04-19T06:11:44.249Z,102596
2018-04-19T06:14:12.368Z,102596
2018-04-19T06:16:40.509Z,102596
2018-04-19T06:19:08.697Z,102595
2018-04-19T06:21:36.875Z,102599
2018-04-19T06:24:05.054Z,102593
2018-04-19T06:26:33.223Z,102593
2018-04-19T06:29:01.349Z,102591
2018-04-19T06:31:29.606Z,102592
2018-04-19T06:33:58.561Z,102605
2018-04-19T06:36:26.718Z,102600
2018-04-19T06:38:54.885Z,102589
2018-04-19T06:41:23.059Z,102595
2018-04-19T06:43:51.346Z,102602
2018-04-19T06:46:19.508Z,102605
2018-04-19T06:48:47.669Z,102602
2018-04-19T06:51:15.880Z,102597
2018-04-19T06:53:44.117Z,102598
2018-04-19T06:56:12.237Z,102598
2018-04-19T06:58:40.364Z,102595
2018-04-19T07:01:08.723Z,102599
2018-04-19T07:03:36.844Z,102597
2018-04-19T07:06:04.984Z,102614
2018-04-19T07:08:33.142Z,102612
2018-04-19T07:11:01.350Z,102608
2018-04-19T07:13:29.627Z,102602
2018-04-19T07:15:57.795Z,102607
2018-04-19T07:18:25.954Z,102611
2018-04-19T07:20:54.150Z,102607
2018-04-19T07:23:22.304Z,102606
2018-04-19T07:25:50.465Z,102601
2018-04-19T07:28:18.769Z,102601
2018-04-19T07:30:46.926Z,102597
2018-04-19T07:33:15.082Z,102603
2018-04-19T07:35:43.254Z,102597
2018-04-19T07:38:11.414Z,102603
2018-04-19T07:40:39.602Z,102608
2018-04-19T07:43:07.825Z,102608
2018-04-19T07:45:35.954Z,102604
2018-04-19T07:48:04.164Z,102608
2018-04-19T07:50:32.429Z,102608
2018-04-19T07:53:00.583Z,102611
2018-04-19T07:55:28.775Z,102613
2018-04-19T07:57:56.929Z,102614
2018-04-19T08:00:25.078Z,102613
2018-04-19T08:02:53.282Z,102610
2018-04-19T08:05:21.500Z,102613
2018-04-19T08:07:49.608Z,102609
2018-04-19T08:10:17.763Z,102607
2018-04-19T08:12:45.909Z,102614
2018-04-19T08:15:14.164Z,102617
2018-04-19T08:17:42.308Z,102617
2018-04-19T08:20:10.511Z,102614
2018-04-19T08:22:38.689Z,102610
2018-04-19T08:25:06.833Z,102616
2018-04-19T08:27:34.949Z,102623
2018-04-19T08:30:03.139Z,102622
2018-04-19T08:32:32.028Z,102618
2018-04-19T08:35:00.913Z,102615
2018-04-19T08:37:29.881Z,102612
2018-04-19T08:39:58.136Z,102621
2018-04-19T08:42:26.294Z,102616
2018-04-19T08:44:54.440Z,102614
2018-04-19T08:47:22.654Z,102613
2018-04-19T08:49:50.806Z,102614
2018-04-19T08:52:18.975Z,102620
2018-04-19T08:54:47.170Z,102624
2018-04-19T08:57:15.442Z,102620
2018-04-19T08:59:43.598Z,102615
2018-04-19T09:02:11.741Z,102620
2018-04-19T09:04:40.665Z,102619
2018-04-19T09:07:08.953Z,102617
2018-04-19T09:09:37.440Z,102619
2018-04-19T09:12:05.671Z,102613
2018-04-19T09:14:33.881Z,102615
2018-04-19T09:17:02.046Z,102616
2018-04-19T09:19:30.241Z,102613
2018-04-19T09:21:58.418Z,102618
2018-04-19T09:24:26.553Z,102622
2018-04-19T09:26:54.704Z,102620
2018-04-19T09:29:22.841Z,102628
2018-04-19T09:31:50.995Z,102617
2018-04-19T09:34:19.258Z,102621
2018-04-19T09:36:47.422Z,102619
2018-04-19T09:39:15.588Z,102616
2018-04-19T09:41:43.709Z,102620
2018-04-19T09:44:11.829Z,102620
2018-04-19T09:46:40.008Z,102614
2018-04-19T09:49:09.253Z,102618
2018-04-19T09:51:37.475Z,102621
2018-04-19T09:54:05.717Z,102620
2018-04-19T09:56:33.766Z,102624
2018-04-19T09:59:12.438Z,102619
2018-04-19T10:01:46.109Z,102619
2018-04-19T10:04:15.055Z,102610
2018-04-19T10:06:43.182Z,102617
2018-04-19T10:09:12.114Z,102615
2018-04-19T10:11:40.285Z,102608
2018-04-19T10:14:08.430Z,102614
2018-04-19T10:16:36.549Z,102603
2018-04-19T10:19:04.734Z,102611
2018-04-19T10:21:33.244Z,102606
2018-04-19T10:24:02.216Z,102602
2018-04-19T10:26:31.128Z,102610
2018-04-19T10:28:59.327Z,102603
2018-04-19T10:31:27.450Z,102605
2018-04-19T10:33:56.360Z,102600
2018-04-19T10:36:25.302Z,102600
2018-04-19T10:38:53.428Z,102596
2018-04-19T10:41:22.320Z,102588
2018-04-19T10:43:50.503Z,102591
2018-04-19T10:46:18.702Z,102590
2018-04-19T10:48:46.841Z,102589
2018-04-19T10:51:14.994Z,102587
2018-04-19T10:53:43.926Z,102578
2018-04-19T10:56:12.088Z,102585
2018-04-19T10:58:40.261Z,102580
2018-04-19T11:01:08.470Z,102580
2018-04-19T11:03:36.634Z,102574
2018-04-19T11:06:04.801Z,102571
2018-04-19T11:08:33.156Z,102572
2018-04-19T11:11:01.623Z,102571
2018-04-19T11:13:29.797Z,102563
2018-04-19T11:15:57.981Z,102568
2018-04-19T11:18:26.125Z,102559
2018-04-19T11:20:55.018Z,102567
2018-04-19T11:23:23.948Z,102564
2018-04-19T11:25:52.106Z,102557
2018-04-19T11:28:20.236Z,102565
2018-04-19T11:30:48.404Z,102548
2018-04-19T11:33:16.587Z,102547
2018-04-19T11:35:45.620Z,102543
2018-04-19T11:38:14.011Z,102547
2018-04-19T11:40:42.351Z,102547
2018-04-19T11:43:10.536Z,102539
2018-04-19T11:45:38.720Z,102541
2018-04-19T11:48:06.903Z,102539
2018-04-19T11:50:35.021Z,102545
2018-04-19T11:53:03.174Z,102539
2018-04-19T11:55:31.328Z,102542
2018-04-19T11:57:59.442Z,102535
2018-04-19T12:00:27.604Z,102538
2018-04-19T12:02:55.778Z,102534
2018-04-19T12:05:23.905Z,102531
2018-04-19T12:07:52.032Z,102527
2018-04-19T12:10:20.232Z,102532
2018-04-19T12:12:48.382Z,102536
2018-04-19T12:15:17.291Z,102527
2018-04-19T12:17:45.462Z,102524
2018-04-19T12:20:13.637Z,102528
2018-04-19T12:22:41.804Z,102530
2018-04-19T12:25:10.722Z,102525
2018-04-19T12:27:38.889Z,102527
2018-04-19T12:30:07.004Z,102518
2018-04-19T12:32:35.149Z,102515
2018-04-19T12:35:03.277Z,102519
2018-04-19T12:37:32.180Z,102520
2018-04-19T12:40:00.336Z,102520
2018-04-19T12:42:29.247Z,102516
2018-04-19T12:44:57.377Z,102515
2018-04-19T12:47:25.565Z,102515
2018-04-19T12:49:54.490Z,102512
2018-04-19T12:52:22.618Z,102513
2018-04-19T12:54:50.784Z,102500
2018-04-19T12:57:18.896Z,102502
2018-04-19T12:59:47.025Z,102509
2018-04-19T13:02:15.140Z,102505
2018-04-19T13:04:44.054Z,102499
2018-04-19T13:07:12.246Z,102504
2018-04-19T13:09:40.454Z,102483
2018-04-19T13:12:09.414Z,102494
2018-04-19T13:14:37.571Z,102485
2018-04-19T13:17:05.700Z,102492
2018-04-19T13:19:34.645Z,102475
2018-04-19T13:22:02.767Z,102476
2018-04-19T13:24:31.682Z,102471
2018-04-19T13:26:59.837Z,102457
2018-04-19T13:29:27.990Z,102455
2018-04-19T13:31:56.922Z,102461
2018-04-19T13:34:25.260Z,102463
2018-04-19T13:36:54.161Z,102449
2018-04-19T13:39:22.323Z,102448
2018-04-19T13:41:50.486Z,102457
2018-04-19T13:44:19.394Z,102450
2018-04-19T13:46:47.578Z,102447
2018-04-19T13:49:15.752Z,102449
2018-04-19T13:51:45.601Z,102455
2018-04-19T13:54:13.732Z,102452
2018-04-19T13:56:41.905Z,102449
2018-04-19T13:59:10.088Z,102444
2018-04-19T14:01:38.235Z,102439
2018-04-19T14:04:07.180Z,102437
2018-04-19T14:06:35.292Z,102435
2018-04-19T14:09:04.193Z,102443
2018-04-19T14:11:32.374Z,102436
2018-04-19T14:14:01.373Z,102428
2018-04-19T14:16:29.569Z,102436
2018-04-19T14:18:57.685Z,102428
2018-04-19T14:21:25.832Z,102431
2018-04-19T14:23:53.991Z,102424
2018-04-19T14:26:22.185Z,102422
2018-04-19T14:28:50.314Z,102422
2018-04-19T14:31:18.455Z,102422
2018-04-19T14:33:47.413Z,102417
2018-04-19T14:36:15.666Z,102424
2018-04-19T14:38:43.796Z,102413
2018-04-19T14:41:12.860Z,102409
2018-04-19T14:43:41.168Z,102409
2018-04-19T14:46:09.292Z,102408
2018-04-19T14:48:37.466Z,102407
2018-04-19T14:51:05.630Z,102405
2018-04-19T14:53:33.773Z,102408
2018-04-19T14:56:01.913Z,102401
2018-04-19T14:58:30.077Z,102395
2018-04-19T15:00:58.323Z,102408
2018-04-19T15:03:26.544Z,102409
2018-04-19T15:05:54.669Z,102405
2018-04-19T15:08:22.848Z,102407
2018-04-19T15:10:51.027Z,102403
2018-04-19T15:13:19.194Z,102402
2018-04-19T15:15:47.369Z,102396
2018-04-19T15:18:15.488Z,102398
2018-04-19T15:20:44.405Z,102391
2018-04-19T15:23:12.577Z,102399
2018-04-19T15:25:40.776Z,102396
2018-04-19T15:28:08.904Z,102392
2018-04-19T15:30:37.804Z,102393
2018-04-19T15:33:05.935Z,102389
2018-04-19T15:35:34.090Z,102392
2018-04-19T15:38:02.245Z,102383
2018-04-19T15:40:30.403Z,102388
2018-04-19T15:42:58.903Z,102391
2018-04-19T15:45:27.050Z,102392
2018-04-19T15:47:55.197Z,102395
2018-04-19T15:50:28.967Z,102393
2018-04-19T15:52:57.124Z,102384
2018-04-19T15:55:25.372Z,102389
2018-04-19T15:57:53.528Z,102382
2018-04-19T16:00:22.486Z,102374
2018-04-19T16:02:50.704Z,102369
2018-04-19T16:05:18.827Z,102372
2018-04-19T16:07:46.964Z,102373
2018-04-19T16:10:15.102Z,102375
2018-04-19T16:12:44.112Z,102365
2018-04-19T16:15:12.244Z,102378
2018-04-19T16:17:40.398Z,102366
2018-04-19T16:20:08.544Z,102371
2018-04-19T16:22:36.694Z,102367
2018-04-19T16:25:04.893Z,102365
2018-04-19T16:27:33.079Z,102370
2018-04-19T16:30:01.204Z,102364
2018-04-19T16:32:30.109Z,102365
2018-04-19T16:34:58.246Z,102360
2018-04-19T16:37:26.451Z,102360
2018-04-19T16:39:54.608Z,102353
2018-04-19T16:42:23.513Z,102355
2018-04-19T16:44:51.716Z,102356
2018-04-19T16:47:19.933Z,102350
2018-04-19T16:49:48.072Z,102348
2018-04-19T16:52:16.222Z,102349
2018-04-19T16:54:44.390Z,102346
2018-04-19T16:57:12.553Z,102343
2018-04-19T16:59:40.769Z,102342
2018-04-19T17:02:08.917Z,102341
2018-04-19T17:04:37.088Z,102341
2018-04-19T17:07:05.278Z,102335
2018-04-19T17:09:33.470Z,102332
2018-04-19T17:12:01.640Z,102341
2018-04-19T17:14:29.807Z,102332
2018-04-19T17:16:57.969Z,102337
2018-04-19T17:19:26.117Z,102329
2018-04-19T17:21:54.339Z,102331
2018-04-19T17:24:22.417Z,102331
2018-04-19T17:26:50.550Z,102331
2018-04-19T17:29:18.733Z,102333
2018-04-19T17:31:46.879Z,102327
2018-04-19T17:34:15.054Z,102326
2018-04-19T17:36:43.212Z,102326
2018-04-19T17:39:11.383Z,102321
2018-04-19T17:41:40.296Z,102318
2018-04-19T17:44:08.417Z,102316
2018-04-19T17:46:36.679Z,102320
2018-04-19T17:49:04.911Z,102318
2018-04-19T17:51:33.092Z,102314
2018-04-19T17:54:01.208Z,102314
2018-04-19T17:56:29.320Z,102312
2018-04-19T17:58:57.511Z,102313
2018-04-19T18:01:25.679Z,102308
2018-04-19T18:03:53.833Z,102320
2018-04-19T18:06:22.744Z,102320
2018-04-19T18:08:50.864Z,102315
2018-04-19T18:11:19.014Z,102315
2018-04-19T18:13:47.247Z,102317
2018-04-19T18:16:15.403Z,102327
2018-04-19T18:18:44.293Z,102314
2018-04-19T18:21:13.220Z,102322
2018-04-19T18:23:41.380Z,102326
2018-04-19T18:26:09.568Z,102327
2018-04-19T18:28:37.726Z,102333
2018-04-19T18:31:05.922Z,102333
2018-04-19T18:33:34.257Z,102335
2018-04-19T18:36:03.173Z,102333
2018-04-19T18:38:31.300Z,102332
2018-04-19T18:40:59.566Z,102325
2018-04-19T18:43:27.730Z,102337
2018-04-19T18:45:55.878Z,102333
2018-04-19T18:48:24.457Z,102333
2018-04-19T18:50:52.598Z,102332
2018-04-19T18:53:21.633Z,102332
2018-04-19T18:55:49.799Z,102331
2018-04-19T18:58:18.713Z,102332
2018-04-19T19:00:47.179Z,102239
2018-04-19T19:03:16.841Z,102331
2018-04-19T19:05:45.780Z,102330
2018-04-19T19:08:13.970Z,102334
2018-04-19T19:10:42.157Z,102330
2018-04-19T19:13:10.319Z,102338
2018-04-19T19:16:09.120Z,102332
2018-04-19T19:18:55.109Z,102332
2018-04-19T19:21:24.034Z,102328
2018-04-19T19:23:52.185Z,102330
2018-04-19T19:26:21.135Z,102324
2018-04-19T19:28:49.313Z,102324
2018-04-19T19:31:17.564Z,102318
2018-04-19T19:33:45.866Z,102330
2018-04-19T19:36:14.014Z,102331
2018-04-19T19:38:42.206Z,102328
2018-04-19T19:41:10.385Z,102332
2018-04-19T19:43:38.630Z,102332
2018-04-19T19:46:06.794Z,102325
2018-04-19T19:48:34.947Z,102332
2018-04-19T19:51:03.839Z,102327
2018-04-19T19:53:32.836Z,102328
2018-04-19T19:56:01.718Z,102328
2018-04-19T19:58:30.747Z,102330
2018-04-19T20:00:58.901Z,102329
2018-04-19T20:03:27.241Z,102328
2018-04-19T20:05:55.438Z,102332
2018-04-19T20:08:24.462Z,102337
2018-04-19T20:10:52.654Z,102344
2018-04-19T20:13:20.814Z,102338
2018-04-19T20:15:48.982Z,102337
2018-04-19T20:18:17.131Z,102333
2018-04-19T20:20:45.252Z,102337
2018-04-19T20:23:13.418Z,102329
2018-04-19T20:25:41.642Z,102332
2018-04-19T20:28:09.792Z,102329
2018-04-19T20:30:38.153Z,102320
2018-04-19T20:33:06.304Z,102319
2018-04-19T20:35:34.492Z,102319
2018-04-19T20:38:03.454Z,102317
2018-04-19T20:40:31.984Z,102317
2018-04-19T20:43:00.138Z,102314
2018-04-19T20:45:28.257Z,102305
2018-04-19T20:47:56.378Z,102310
2018-04-19T20:50:24.646Z,102315
2018-04-19T20:52:52.797Z,102307
2018-04-19T20:55:20.921Z,102306
2018-04-19T20:57:49.073Z,102309
2018-04-19T21:00:17.229Z,102310
2018-04-19T21:02:45.412Z,102301
2018-04-19T21:05:13.669Z,102304
2018-04-19T21:07:41.913Z,102299
2018-04-19T21:10:10.350Z,102300
2018-04-19T21:12:38.494Z,102290
2018-04-19T21:15:17.435Z,102300
2018-04-19T21:17:45.566Z,102304
2018-04-19T21:20:13.711Z,102299
2018-04-19T21:22:52.482Z,102299
2018-04-19T21:25:31.449Z,102296
2018-04-19T21:28:01.356Z,102292
2018-04-19T21:30:29.492Z,102282
2018-04-19T21:32:58.652Z,102291
2018-04-19T21:35:27.595Z,102289
2018-04-19T21:37:55.766Z,102278
2018-04-19T21:40:23.904Z,102282
2018-04-19T21:42:52.097Z,102274
2018-04-19T21:45:20.249Z,102275
2018-04-19T21:47:48.479Z,102268
2018-04-19T21:50:16.669Z,102215
2018-04-19T21:52:45.591Z,102276
2018-04-19T21:55:13.721Z,102270
2018-04-19T21:57:41.890Z,102259
2018-04-19T22:00:10.045Z,102267
2018-04-19T22:02:38.197Z,102258
2018-04-19T22:05:06.345Z,102262
2018-04-19T22:07:34.553Z,102258
2018-04-19T22:10:02.796Z,102259
2018-04-19T22:12:31.042Z,102253
2018-04-19T22:14:59.966Z,102248
2018-04-19T22:17:28.146Z,102248
2018-04-19T22:19:57.220Z,102251
2018-04-19T22:22:26.162Z,102251
2018-04-19T22:24:54.310Z,102240
2018-04-19T22:27:22.449Z,102243
2018-04-19T22:29:51.385Z,102237
2018-04-19T22:32:19.569Z,102233
2018-04-19T22:34:47.693Z,102242
2018-04-19T22:37:16.610Z,102232
2018-04-19T22:39:44.762Z,102230
2018-04-19T22:42:12.928Z,102231
2018-04-19T22:44:41.832Z,102229
2018-04-19T22:47:09.948Z,102223
2018-04-19T22:49:38.078Z,102225
2018-04-19T22:52:06.194Z,102222
2018-04-19T22:54:34.345Z,102228
2018-04-19T22:57:02.507Z,102219
2018-04-19T22:59:30.677Z,102219
2018-04-19T23:01:58.854Z,102223
2018-04-19T23:04:27.000Z,102225
2018-04-19T23:06:55.145Z,102224
2018-04-19T23:09:23.302Z,102222
2018-04-19T23:11:51.490Z,102223
2018-04-19T23:14:19.738Z,102223
2018-04-19T23:16:47.906Z,102230
2018-04-19T23:19:16.082Z,102228
2018-04-19T23:21:44.256Z,102219
2018-04-19T23:24:12.414Z,102217
2018-04-19T23:26:40.618Z,102218
2018-04-19T23:29:08.774Z,102214
2018-04-19T23:31:36.965Z,102211
2018-04-19T23:34:05.114Z,102203
2018-04-19T23:36:33.286Z,102202
2018-04-19T23:39:01.474Z,102203
2018-04-19T23:41:29.666Z,102192
2018-04-19T23:43:57.909Z,102194
2018-04-19T23:46:26.084Z,102189
2018-04-19T23:48:54.258Z,102191
2018-04-19T23:51:22.426Z,102191
2018-04-19T23:53:50.631Z,102187
2018-04-19T23:56:18.978Z,102187
2018-04-19T23:58:47.153Z,102185
